Saturday, January 20, 2018, 10:05 AM EST
Back to Local

KIWI, Wiscasset Municipal Airport

Location: Wiscasset, ME, United States Lat: 43.967
Local Time: 10:05 AM EST (15:05 GMT) Lon: -69.717
Time Zone: US/Eastern Elev: 68 ft

Show me the last for .
Show Decoded

2018-01-20 08:53 METAR KIWI 201353Z AUTO 24004G16KT 10SM CLR 02/M04 A2957 RMK AO2 SLP015
                 T00171039 =
2018-01-20 07:53 METAR KIWI 201253Z AUTO 22011G20KT 10SM CLR 01/M04 A2956 RMK AO2 SLP012
                 T00111039 =
2018-01-20 06:53 METAR KIWI 201153Z AUTO 21006KT 10SM FEW120 00/M04 A2960 RMK AO2 SLP023 70001
                 T00001044 10000 21022 56041 =
2018-01-20 05:53 METAR KIWI 201053Z AUTO 21006KT 10SM CLR M01/M04 A2963 RMK AO2 SLP033 T10061044
                 =
2018-01-20 04:53 METAR KIWI 200953Z AUTO 21007KT 10SM FEW110 M01/M04 A2965 RMK AO2 PRESFR SLP042
                 T10061044 =
2018-01-20 03:53 METAR KIWI 200853Z AUTO 23005KT 10SM OVC110 00/M03 A2972 RMK AO2 SLP064
                 T00001033 58027 =
2018-01-20 01:53 METAR KIWI 200653Z AUTO 19003KT 10SM OVC100 M02/M04 A2978 RMK AO2 SLP085
                 T10171044 =
2018-01-20 00:53 METAR KIWI 200553Z AUTO 21003KT 10SM SCT120 M02/M05 A2980 RMK AO2 SLP091
                 T10221050 11017 21028 58026 =
2018-01-19 23:53 METAR KIWI 200453Z AUTO 21004KT 10SM SCT036 M02/M04 A2983 RMK AO2 SLP103
                 T10171044 400061139 =
2018-01-19 22:53 METAR KIWI 200353Z AUTO 00000KT 10SM OVC035 M02/M04 A2987 RMK AO2 SLP114
                 T10221044 =
2018-01-19 21:53 METAR KIWI 200253Z AUTO 00000KT 10SM OVC037 M03/M03 A2987 RMK AO2 SLP117
                 T10281033 58007 =
2018-01-19 20:53 METAR KIWI 200153Z AUTO 00000KT 10SM OVC037 M02/M03 A2989 RMK AO2 SLP124
                 T10221033 =
2018-01-19 19:53 METAR KIWI 200053Z AUTO 00000KT 10SM OVC034 M02/M03 A2990 RMK AO2 SLP126
                 T10221033 =
2018-01-19 18:53 METAR KIWI 192353Z AUTO 00000KT 10SM OVC036 M02/M03 A2990 RMK AO2 SLP125
                 T10221033 10006 21022 58005 =
2018-01-19 17:53 METAR KIWI 192253Z AUTO 00000KT 10SM OVC036 M02/M04 A2991 RMK AO2 SLP128
                 T10171039 =
2018-01-19 16:53 METAR KIWI 192153Z AUTO 00000KT 10SM OVC040 M01/M04 A2992 RMK AO2 SLP134
                 T10111044 =
2018-01-19 15:53 METAR KIWI 192053Z AUTO 00000KT 10SM OVC039 M01/M05 A2991 RMK AO2 SLP130
                 T10061050 53002 =
2018-01-19 14:53 METAR KIWI 191953Z AUTO 00000KT 10SM OVC033 00/M05 A2991 RMK AO2 SLP130
                 T00001050 =
2018-01-19 13:53 METAR KIWI 191853Z AUTO VRB04KT 10SM BKN032 OVC042 00/M06 A2990 RMK AO2 SLP127
                 T00001061 =
2018-01-19 12:53 METAR KIWI 191753Z AUTO VRB03KT 10SM CLR 00/M06 A2991 RMK AO2 SLP128 60001
                 T00001056 10006 21089 58022 =
2018-01-19 11:53 METAR KIWI 191653Z AUTO VRB04KT 10SM BKN041 M01/M05 A2993 RMK AO2 SLP136
                 T10061050 =
2018-01-19 10:53 METAR KIWI 191553Z AUTO 20003KT 10SM CLR M03/M04 A2995 RMK AO2 SLP144 T10281039
                 =

Support USWX by starting your Amazon purchase here.